createdAt,value
2019-01-21T00:00:55.899Z,16.70
2019-01-21T00:03:24.711Z,16.85
2019-01-21T00:05:53.526Z,15.40
2019-01-21T00:08:22.371Z,16.05
2019-01-21T00:10:51.236Z,16.60
2019-01-21T00:13:19.978Z,17.57
2019-01-21T00:15:49.090Z,17.23
2019-01-21T00:18:17.880Z,15.93
2019-01-21T00:20:46.600Z,16.30
2019-01-21T00:23:15.640Z,15.13
2019-01-21T00:25:44.449Z,17.80
2019-01-21T00:28:13.410Z,16.82
2019-01-21T00:30:42.387Z,18.62
2019-01-21T00:33:11.114Z,17.40
2019-01-21T00:35:39.849Z,16.35
2019-01-21T00:38:08.664Z,16.32
2019-01-21T00:40:37.635Z,17.55
2019-01-21T00:43:06.614Z,17.52
2019-01-21T00:45:35.353Z,17.17
2019-01-21T00:48:04.211Z,16.42
2019-01-21T00:50:32.954Z,16.32
2019-01-21T00:53:01.731Z,17.87
2019-01-21T00:55:31.198Z,18.23
2019-01-21T00:58:00.232Z,16.90
2019-01-21T01:00:29.035Z,16.15
2019-01-21T01:02:58.066Z,16.52
2019-01-21T01:05:27.086Z,15.72
2019-01-21T01:07:55.946Z,15.13
2019-01-21T01:10:25.043Z,15.10
2019-01-21T01:12:53.816Z,15.00
2019-01-21T01:15:22.596Z,15.25
2019-01-21T01:17:51.399Z,15.40
2019-01-21T01:20:21.286Z,15.85
2019-01-21T01:22:50.170Z,14.50
2019-01-21T01:25:19.179Z,15.60
2019-01-21T01:27:47.920Z,15.32
2019-01-21T01:30:17.621Z,14.90
2019-01-21T01:32:46.439Z,15.58
2019-01-21T01:35:16.791Z,14.87
2019-01-21T01:37:45.769Z,13.93
2019-01-21T01:40:18.981Z,15.20
2019-01-21T01:42:48.378Z,14.83
2019-01-21T01:45:23.327Z,14.50
2019-01-21T01:47:59.434Z,14.05
2019-01-21T01:50:28.373Z,13.58
2019-01-21T01:52:57.167Z,12.82
2019-01-21T01:55:28.285Z,12.13
2019-01-21T01:57:59.315Z,12.70
2019-01-21T02:00:28.547Z,12.40
2019-01-21T02:02:57.307Z,12.98
2019-01-21T02:05:26.415Z,13.30
2019-01-21T02:07:55.624Z,12.85
2019-01-21T02:10:24.513Z,12.53
2019-01-21T02:12:53.308Z,11.28
2019-01-21T02:15:22.434Z,11.75
2019-01-21T02:17:52.141Z,12.35
2019-01-21T02:20:21.583Z,12.75
2019-01-21T02:22:54.217Z,12.65
2019-01-21T02:25:27.774Z,11.73
2019-01-21T02:28:33.971Z,11.57
2019-01-21T02:31:42.469Z,11.12
2019-01-21T02:34:45.869Z,10.93
2019-01-21T02:37:45.975Z,9.48
2019-01-21T02:40:39.659Z,10.95
2019-01-21T02:43:48.923Z,10.93
2019-01-21T02:46:36.177Z,9.68
2019-01-21T02:49:26.718Z,9.33
2019-01-21T02:52:55.011Z,9.10
2019-01-21T02:55:54.541Z,10.53
2019-01-21T02:58:37.727Z,9.85
2019-01-21T03:01:44.251Z,9.23
2019-01-21T03:04:48.651Z,9.40
2019-01-21T03:07:24.916Z,9.20
2019-01-21T03:10:09.276Z,8.68
2019-01-21T03:13:04.731Z,9.03
2019-01-21T03:16:04.839Z,8.85
2019-01-21T03:19:11.022Z,8.33
2019-01-21T03:22:20.036Z,8.78
2019-01-21T03:25:21.162Z,9.30
2019-01-21T03:28:40.124Z,8.83
2019-01-21T03:31:47.885Z,8.75
2019-01-21T03:34:46.673Z,8.80
2019-01-21T03:37:49.471Z,8.05
2019-01-21T03:40:36.558Z,9.98
2019-01-21T03:43:25.820Z,9.83
2019-01-21T03:46:35.673Z,9.63
2019-01-21T03:49:14.133Z,9.48
2019-01-21T03:52:21.338Z,9.68
2019-01-21T03:54:54.115Z,8.90
2019-01-21T03:57:51.362Z,9.18
2019-01-21T04:01:06.434Z,9.38
2019-01-21T04:04:14.204Z,10.28
2019-01-21T04:07:00.855Z,9.85
2019-01-21T04:10:24.351Z,10.75
2019-01-21T04:13:35.678Z,9.90
2019-01-21T04:16:42.868Z,10.25
2019-01-21T04:19:37.705Z,7.95
2019-01-21T04:22:32.908Z,8.80
2019-01-21T04:25:17.257Z,9.10
2019-01-21T04:28:10.259Z,9.53
2019-01-21T04:31:27.565Z,10.75
2019-01-21T04:34:25.745Z,10.35
2019-01-21T04:37:21.128Z,9.70
2019-01-21T04:40:17.391Z,9.68
2019-01-21T04:43:10.123Z,9.10
2019-01-21T04:46:20.345Z,9.13
2019-01-21T04:49:01.411Z,8.45
2019-01-21T04:52:11.911Z,9.55
2019-01-21T04:55:29.756Z,9.40
2019-01-21T04:58:47.923Z,8.63
2019-01-21T05:02:01.453Z,10.03
2019-01-21T05:04:53.651Z,11.28
2019-01-21T05:07:56.816Z,9.55
2019-01-21T05:10:55.044Z,9.55
2019-01-21T05:13:54.734Z,10.70
2019-01-21T05:16:54.276Z,9.83
2019-01-21T05:19:49.204Z,9.40
2019-01-21T05:23:01.865Z,8.53
2019-01-21T05:26:29.982Z,8.68
2019-01-21T05:29:12.054Z,8.40
2019-01-21T05:32:18.051Z,9.83
2019-01-21T05:35:28.067Z,9.15
2019-01-21T05:38:22.621Z,10.03
2019-01-21T05:41:44.162Z,8.28
2019-01-21T05:44:35.404Z,10.03
2019-01-21T05:47:54.727Z,10.53
2019-01-21T05:51:00.692Z,11.50
2019-01-21T05:54:01.416Z,12.23
2019-01-21T05:57:13.223Z,10.48
2019-01-21T06:00:03.429Z,9.23
2019-01-21T06:03:21.204Z,10.53
2019-01-21T06:06:21.700Z,10.48
2019-01-21T06:09:07.126Z,9.78
2019-01-21T06:11:55.550Z,10.45
2019-01-21T06:14:49.881Z,10.78
2019-01-21T06:18:06.055Z,9.73
2019-01-21T06:21:10.477Z,9.43
2019-01-21T06:24:14.665Z,10.13
2019-01-21T06:27:22.337Z,10.90
2019-01-21T06:30:39.308Z,10.08
2019-01-21T06:33:47.272Z,9.10
2019-01-21T06:36:32.576Z,10.15
2019-01-21T06:39:33.062Z,10.30
2019-01-21T06:42:32.747Z,9.08
2019-01-21T06:45:44.437Z,10.90
2019-01-21T06:48:27.548Z,9.48
2019-01-21T06:51:46.381Z,10.90
2019-01-21T06:54:37.618Z,9.75
2019-01-21T06:57:19.828Z,9.75
2019-01-21T07:00:35.801Z,10.23
2019-01-21T07:03:44.533Z,10.15
2019-01-21T07:06:54.372Z,10.50
2019-01-21T07:09:46.987Z,12.33
2019-01-21T07:13:15.025Z,10.70
2019-01-21T07:16:21.163Z,10.05
2019-01-21T07:19:29.931Z,9.63
2019-01-21T07:22:28.909Z,10.65
2019-01-21T07:25:20.578Z,10.85
2019-01-21T07:28:13.582Z,11.68
2019-01-21T07:31:14.310Z,11.38
2019-01-21T07:34:17.315Z,10.48
2019-01-21T07:37:13.473Z,10.78
2019-01-21T07:40:17.628Z,10.03
2019-01-21T07:43:22.344Z,10.90
2019-01-21T07:46:39.527Z,10.63
2019-01-21T07:49:30.182Z,12.18
2019-01-21T07:52:45.026Z,11.03
2019-01-21T07:55:41.111Z,11.40
2019-01-21T07:58:55.850Z,12.60
2019-01-21T08:01:33.149Z,11.30
2019-01-21T08:04:30.125Z,11.08
2019-01-21T08:07:37.651Z,12.55
2019-01-21T08:10:33.816Z,11.35
2019-01-21T08:13:48.139Z,12.30
2019-01-21T08:17:01.412Z,10.88
2019-01-21T08:20:05.872Z,11.70
2019-01-21T08:23:01.966Z,13.05
2019-01-21T08:25:57.369Z,12.85
2019-01-21T08:28:57.510Z,12.37
2019-01-21T08:31:51.888Z,11.75
2019-01-21T08:34:45.566Z,12.07
2019-01-21T08:37:38.263Z,10.85
2019-01-21T08:40:16.385Z,11.75
2019-01-21T08:43:00.406Z,12.55
2019-01-21T08:45:50.270Z,13.10
2019-01-21T08:48:58.648Z,13.38
2019-01-21T08:52:20.310Z,16.17
2019-01-21T08:55:25.826Z,14.65
2019-01-21T08:58:34.782Z,16.07
2019-01-21T09:01:43.959Z,16.67
2019-01-21T09:04:42.858Z,18.65
2019-01-21T09:08:01.143Z,18.12
2019-01-21T09:11:09.167Z,19.00
2019-01-21T09:13:47.139Z,18.35
2019-01-21T09:16:52.177Z,18.35
2019-01-21T09:20:10.630Z,18.27
2019-01-21T09:22:52.751Z,19.57
2019-01-21T09:25:53.401Z,19.92
2019-01-21T09:28:49.433Z,20.90
2019-01-21T09:32:08.499Z,29.60
2019-01-21T09:35:17.338Z,23.87
2019-01-21T09:38:04.991Z,22.80
2019-01-21T09:41:06.975Z,20.97
2019-01-21T09:43:46.236Z,21.82
2019-01-21T09:46:43.185Z,23.22
2019-01-21T09:49:10.902Z,22.93
2019-01-21T09:51:41.787Z,23.02
2019-01-21T09:54:11.118Z,21.48
2019-01-21T09:56:40.310Z,21.85
2019-01-21T09:59:09.306Z,21.37
2019-01-21T10:01:38.110Z,19.35
2019-01-21T10:04:07.346Z,19.62
2019-01-21T10:06:49.179Z,20.97
2019-01-21T10:10:00.324Z,23.90
2019-01-21T10:13:17.872Z,22.45
2019-01-21T10:16:01.064Z,24.02
2019-01-21T10:18:42.276Z,23.30
2019-01-21T10:21:38.916Z,20.75
2019-01-21T10:24:30.037Z,19.37
2019-01-21T10:27:29.790Z,22.13
2019-01-21T10:30:09.148Z,20.77
2019-01-21T10:33:14.173Z,18.73
2019-01-21T10:36:18.510Z,17.92
2019-01-21T10:39:21.084Z,18.70
2019-01-21T10:42:15.532Z,19.17
2019-01-21T10:45:02.791Z,18.95
2019-01-21T10:47:50.900Z,18.65
2019-01-21T10:51:08.340Z,19.63
2019-01-21T10:53:48.381Z,18.82
2019-01-21T10:56:23.491Z,17.40
2019-01-21T10:59:46.943Z,17.02
2019-01-21T11:03:02.673Z,16.87
2019-01-21T11:06:15.485Z,17.07
2019-01-21T11:09:27.934Z,17.13
2019-01-21T11:12:47.182Z,18.00
2019-01-21T11:15:32.150Z,18.57
2019-01-21T11:18:09.607Z,15.83
2019-01-21T11:21:26.224Z,16.20
2019-01-21T11:24:21.838Z,16.03
2019-01-21T11:27:13.181Z,17.17
2019-01-21T11:30:10.670Z,18.17
2019-01-21T11:33:18.253Z,16.63
2019-01-21T11:36:22.839Z,16.03
2019-01-21T11:39:18.206Z,16.23
2019-01-21T11:42:34.224Z,16.60
2019-01-21T11:45:34.991Z,16.93
2019-01-21T11:48:43.248Z,15.80
2019-01-21T11:51:35.618Z,18.03
2019-01-21T11:54:51.927Z,18.07
2019-01-21T11:57:43.800Z,16.53
2019-01-21T12:00:39.826Z,17.07
2019-01-21T12:03:26.402Z,16.60
2019-01-21T12:06:37.891Z,18.03
2019-01-21T12:09:27.599Z,18.50
2019-01-21T12:12:31.220Z,18.30
2019-01-21T12:15:23.950Z,19.63
2019-01-21T12:18:20.019Z,19.07
2019-01-21T12:21:32.916Z,18.53
2019-01-21T12:24:34.974Z,17.87
2019-01-21T12:27:49.935Z,17.50
2019-01-21T12:30:54.882Z,17.50
2019-01-21T12:33:41.606Z,17.70
2019-01-21T12:36:43.819Z,18.80
2019-01-21T12:39:22.647Z,19.10
2019-01-21T12:42:44.811Z,21.50
2019-01-21T12:45:56.118Z,20.10
2019-01-21T12:49:07.633Z,20.67
2019-01-21T12:52:06.482Z,21.10
2019-01-21T12:54:47.790Z,22.33
2019-01-21T12:57:52.567Z,21.57
2019-01-21T13:00:53.766Z,22.60
2019-01-21T13:03:49.983Z,22.73
2019-01-21T13:06:41.104Z,21.83
2019-01-21T13:09:38.202Z,21.27
2019-01-21T13:12:37.008Z,20.40
2019-01-21T13:15:35.941Z,21.07
2019-01-21T13:18:46.051Z,22.77
2019-01-21T13:21:50.991Z,20.63
2019-01-21T13:24:34.940Z,22.77
2019-01-21T13:27:11.266Z,22.40
2019-01-21T13:30:07.810Z,21.83
2019-01-21T13:33:16.140Z,24.33
2019-01-21T13:36:16.247Z,24.60
2019-01-21T13:39:21.780Z,25.17
2019-01-21T13:42:30.737Z,22.40
2019-01-21T13:45:15.231Z,22.33
2019-01-21T13:48:11.629Z,23.93
2019-01-21T13:50:50.010Z,23.70
2019-01-21T13:53:38.198Z,23.50
2019-01-21T13:56:28.320Z,23.33
2019-01-21T13:59:19.771Z,24.10
2019-01-21T14:02:20.718Z,23.30
2019-01-21T14:05:16.287Z,20.90
2019-01-21T14:07:56.910Z,23.07
2019-01-21T14:10:59.637Z,22.10
2019-01-21T14:14:06.626Z,21.07
2019-01-21T14:17:05.221Z,22.67
2019-01-21T14:20:08.345Z,24.40
2019-01-21T14:22:53.555Z,22.67
2019-01-21T14:25:49.952Z,24.37
2019-01-21T14:28:36.826Z,23.37
2019-01-21T14:31:35.334Z,22.13
2019-01-21T14:34:24.671Z,24.13
2019-01-21T14:37:23.816Z,21.53
2019-01-21T14:40:24.228Z,22.83
2019-01-21T14:43:16.195Z,23.00
2019-01-21T14:46:35.667Z,22.47
2019-01-21T14:49:30.925Z,21.90
2019-01-21T14:52:39.103Z,22.60
2019-01-21T14:55:29.812Z,22.77
2019-01-21T14:58:21.289Z,21.70
2019-01-21T15:01:29.110Z,22.27
2019-01-21T15:04:07.352Z,23.70
2019-01-21T15:07:19.284Z,23.63
2019-01-21T15:10:30.122Z,22.77
2019-01-21T15:13:33.167Z,22.63
2019-01-21T15:16:43.313Z,23.03
2019-01-21T15:19:52.204Z,22.87
2019-01-21T15:23:23.357Z,22.43
2019-01-21T15:26:32.454Z,23.70
2019-01-21T15:29:41.552Z,24.67
2019-01-21T15:33:15.934Z,25.50
2019-01-21T15:36:12.648Z,23.80
2019-01-21T15:38:52.837Z,23.80
2019-01-21T15:41:40.376Z,22.80
2019-01-21T15:44:36.646Z,22.67
2019-01-21T15:47:38.425Z,25.13
2019-01-21T15:50:20.112Z,23.42
2019-01-21T15:52:59.257Z,23.43
2019-01-21T15:55:44.975Z,26.00
2019-01-21T15:58:45.172Z,25.10
2019-01-21T16:01:31.371Z,24.43
2019-01-21T16:04:23.080Z,24.92
2019-01-21T16:07:24.083Z,25.17
2019-01-21T16:10:19.785Z,25.40
2019-01-21T16:13:24.530Z,23.73
2019-01-21T16:16:40.454Z,22.32
2019-01-21T16:19:33.758Z,22.35
2019-01-21T16:22:42.482Z,22.25
2019-01-21T16:26:01.922Z,22.60
2019-01-21T16:29:03.276Z,23.75
2019-01-21T16:31:53.835Z,22.75
2019-01-21T16:34:58.267Z,23.98
2019-01-21T16:38:10.127Z,24.92
2019-01-21T16:40:57.698Z,22.17
2019-01-21T16:43:26.540Z,21.52
2019-01-21T16:45:55.804Z,22.87
2019-01-21T16:48:24.576Z,21.83
2019-01-21T16:50:53.634Z,22.05
2019-01-21T16:53:22.404Z,20.82
2019-01-21T16:55:51.134Z,25.25
2019-01-21T16:58:19.900Z,24.87
2019-01-21T17:00:48.639Z,27.15
2019-01-21T17:03:17.383Z,27.67
2019-01-21T17:05:46.445Z,29.90
2019-01-21T17:08:15.458Z,26.45
2019-01-21T17:10:44.190Z,24.45
2019-01-21T17:13:13.185Z,25.68
2019-01-21T17:15:41.920Z,25.20
2019-01-21T17:18:10.667Z,28.10
2019-01-21T17:20:39.398Z,26.07
2019-01-21T17:23:08.203Z,24.43
2019-01-21T17:25:37.193Z,24.37
2019-01-21T17:28:05.921Z,23.38
2019-01-21T17:30:34.673Z,25.40
2019-01-21T17:33:03.405Z,25.75
2019-01-21T17:35:32.147Z,24.45
2019-01-21T17:38:00.943Z,25.95
2019-01-21T17:40:29.679Z,24.27
2019-01-21T17:42:58.417Z,26.02
2019-01-21T17:45:27.172Z,24.70
2019-01-21T17:47:55.967Z,24.45
2019-01-21T17:50:24.959Z,25.10
2019-01-21T17:52:53.774Z,24.72
2019-01-21T17:55:22.611Z,22.70
2019-01-21T17:57:51.424Z,23.22
2019-01-21T18:00:23.210Z,24.20
2019-01-21T18:02:52.255Z,23.85
2019-01-21T18:05:21.000Z,22.82
2019-01-21T18:07:49.750Z,18.90
2019-01-21T18:10:19.923Z,19.35
2019-01-21T18:12:48.717Z,24.27
2019-01-21T18:15:17.529Z,21.48
2019-01-21T18:17:46.506Z,23.57
2019-01-21T18:20:20.793Z,24.85
2019-01-21T18:22:49.958Z,24.65
2019-01-21T18:25:18.786Z,21.75
2019-01-21T18:27:47.534Z,21.05
2019-01-21T18:30:19.053Z,21.35
2019-01-21T18:32:48.100Z,18.32
2019-01-21T18:35:17.011Z,22.45
2019-01-21T18:37:45.900Z,18.73
2019-01-21T18:40:16.710Z,19.20
2019-01-21T18:42:45.585Z,18.77
2019-01-21T18:45:17.102Z,19.10
2019-01-21T18:47:46.095Z,18.92
2019-01-21T18:50:14.919Z,18.60
2019-01-21T18:52:43.715Z,17.60
2019-01-21T18:55:12.728Z,18.60
2019-01-21T18:57:41.782Z,18.57
2019-01-21T19:00:14.942Z,18.67
2019-01-21T19:02:43.680Z,18.48
2019-01-21T19:05:12.821Z,16.70
2019-01-21T19:07:41.914Z,17.12
2019-01-21T19:10:11.558Z,20.48
2019-01-21T19:12:40.606Z,19.67
2019-01-21T19:15:12.702Z,19.17
2019-01-21T19:17:41.508Z,20.48
2019-01-21T19:20:11.272Z,17.70
2019-01-21T19:22:40.311Z,17.60
2019-01-21T19:25:09.550Z,18.77
2019-01-21T19:27:38.623Z,16.32
2019-01-21T19:30:10.574Z,16.95
2019-01-21T19:32:42.399Z,16.55
2019-01-21T19:35:13.030Z,16.97
2019-01-21T19:37:42.078Z,17.77
2019-01-21T19:40:14.239Z,18.73
2019-01-21T19:42:43.233Z,20.50
2019-01-21T19:45:12.231Z,18.23
2019-01-21T19:47:40.972Z,18.82
2019-01-21T19:50:11.036Z,18.17
2019-01-21T19:52:39.782Z,19.67
2019-01-21T19:55:12.284Z,17.40
2019-01-21T19:57:41.099Z,17.75
2019-01-21T20:00:14.256Z,18.10
2019-01-21T20:02:44.485Z,17.98
2019-01-21T20:05:13.734Z,19.20
2019-01-21T20:07:42.577Z,17.90
2019-01-21T20:10:13.948Z,17.25
2019-01-21T20:12:42.699Z,15.85
2019-01-21T20:15:12.386Z,16.50
2019-01-21T20:17:41.272Z,15.80
2019-01-21T20:20:16.269Z,17.17
2019-01-21T20:22:45.263Z,17.37
2019-01-21T20:25:14.325Z,19.55
2019-01-21T20:27:43.143Z,18.27
2019-01-21T20:30:14.939Z,17.80
2019-01-21T20:32:43.696Z,20.25
2019-01-21T20:35:13.159Z,18.80
2019-01-21T20:37:42.231Z,18.73
2019-01-21T20:40:14.316Z,20.45
2019-01-21T20:42:43.050Z,17.17
2019-01-21T20:45:12.122Z,19.92
2019-01-21T20:47:41.025Z,19.95
2019-01-21T20:50:12.931Z,19.57
2019-01-21T20:52:41.931Z,19.90
2019-01-21T20:55:11.063Z,19.02
2019-01-21T20:57:40.086Z,19.60
2019-01-21T21:00:11.875Z,19.27
2019-01-21T21:02:40.823Z,19.05
2019-01-21T21:05:09.695Z,18.17
2019-01-21T21:07:38.695Z,19.10
2019-01-21T21:10:08.691Z,18.25
2019-01-21T21:12:37.788Z,19.70
2019-01-21T21:15:09.947Z,19.12
2019-01-21T21:17:38.795Z,19.20
2019-01-21T21:20:09.247Z,12.93
2019-01-21T21:22:38.754Z,12.80
2019-01-21T21:25:09.519Z,13.62
2019-01-21T21:27:38.576Z,12.55
2019-01-21T21:30:11.424Z,13.32
2019-01-21T21:32:40.532Z,15.65
2019-01-21T21:35:09.746Z,13.70
2019-01-21T21:37:39.381Z,12.65
2019-01-21T21:40:11.067Z,13.18
2019-01-21T21:42:40.071Z,11.97
2019-01-21T21:45:10.182Z,13.13
2019-01-21T21:47:39.166Z,14.18
2019-01-21T21:50:11.730Z,15.03
2019-01-21T21:52:40.735Z,15.20
2019-01-21T21:55:10.479Z,14.80
2019-01-21T21:57:39.319Z,12.50
2019-01-21T22:00:11.203Z,14.15
2019-01-21T22:02:40.388Z,13.83
2019-01-21T22:05:09.520Z,15.35
2019-01-21T22:07:38.353Z,13.93
2019-01-21T22:10:10.500Z,12.07
2019-01-21T22:12:40.526Z,14.38
2019-01-21T22:15:12.713Z,14.33
2019-01-21T22:17:42.023Z,15.13
2019-01-21T22:20:13.861Z,13.13
2019-01-21T22:22:42.691Z,14.50
2019-01-21T22:25:11.935Z,14.63
2019-01-21T22:27:40.918Z,13.08
2019-01-21T22:30:15.834Z,13.22
2019-01-21T22:32:44.653Z,13.68
2019-01-21T22:35:13.539Z,12.80
2019-01-21T22:37:42.431Z,13.83
2019-01-21T22:40:13.683Z,13.22
2019-01-21T22:42:42.802Z,13.38
2019-01-21T22:45:12.763Z,12.03
2019-01-21T22:47:41.574Z,13.40
2019-01-21T22:50:11.916Z,13.68
2019-01-21T22:52:42.066Z,14.10
2019-01-21T22:55:12.266Z,14.30
2019-01-21T22:57:41.237Z,14.43
2019-01-21T23:00:42.050Z,14.80
2019-01-21T23:03:11.059Z,13.95
2019-01-21T23:05:39.830Z,15.13
2019-01-21T23:08:09.059Z,13.70
2019-01-21T23:10:38.271Z,15.10
2019-01-21T23:13:07.330Z,13.75
2019-01-21T23:15:36.135Z,14.80
2019-01-21T23:18:05.636Z,14.18
2019-01-21T23:20:34.515Z,16.00
2019-01-21T23:23:03.487Z,15.60
2019-01-21T23:25:32.480Z,15.35
2019-01-21T23:28:01.475Z,13.48
2019-01-21T23:30:30.466Z,14.60
2019-01-21T23:32:59.182Z,13.93
2019-01-21T23:35:27.935Z,13.85
2019-01-21T23:37:56.679Z,14.60
2019-01-21T23:40:25.443Z,13.38
2019-01-21T23:42:54.427Z,14.45
2019-01-21T23:45:23.551Z,14.85
2019-01-21T23:47:52.310Z,14.85
2019-01-21T23:50:21.346Z,14.40
2019-01-21T23:52:55.921Z,14.53
2019-01-21T23:55:20.617Z,16.75
2019-01-21T23:57:49.360Z,15.32
